sensor_id;sensor_type;location;lat;lon;timestamp;P1;durP1;ratioP1;P2;durP2;ratioP2
4391;SDS011;2210;51.938;8.488;2024-03-08T00:02:44;12.20;;;9.17;;
4391;SDS011;2210;51.938;8.488;2024-03-08T00:06:48;11.67;;;8.93;;
4391;SDS011;2210;51.938;8.488;2024-03-08T00:10:50;13.83;;;9.97;;
4391;SDS011;2210;51.938;8.488;2024-03-08T00:15:00;15.07;;;9.83;;
4391;SDS011;2210;51.938;8.488;2024-03-08T00:19:15;11.10;;;9.43;;
4391;SDS011;2210;51.938;8.488;2024-03-08T00:23:15;13.60;;;10.03;;
4391;SDS011;2210;51.938;8.488;2024-03-08T00:27:22;11.45;;;8.75;;
4391;SDS011;2210;51.938;8.488;2024-03-08T00:31:22;11.27;;;8.60;;
4391;SDS011;2210;51.938;8.488;2024-03-08T00:35:34;13.87;;;9.00;;
4391;SDS011;2210;51.938;8.488;2024-03-08T00:39:35;11.87;;;8.67;;
4391;SDS011;2210;51.938;8.488;2024-03-08T00:43:35;12.85;;;9.15;;
4391;SDS011;2210;51.938;8.488;2024-03-08T00:47:35;14.13;;;8.90;;
4391;SDS011;2210;51.938;8.488;2024-03-08T00:51:35;12.90;;;9.50;;
4391;SDS011;2210;51.938;8.488;2024-03-08T00:55:36;13.93;;;9.67;;
4391;SDS011;2210;51.938;8.488;2024-03-08T00:59:45;12.67;;;9.80;;
4391;SDS011;2210;51.938;8.488;2024-03-08T01:03:45;13.50;;;10.07;;
4391;SDS011;2210;51.938;8.488;2024-03-08T01:07:48;12.30;;;9.60;;
4391;SDS011;2210;51.938;8.488;2024-03-08T01:11:49;13.57;;;10.03;;
4391;SDS011;2210;51.938;8.488;2024-03-08T01:15:50;12.30;;;8.83;;
4391;SDS011;2210;51.938;8.488;2024-03-08T01:19:53;14.90;;;10.03;;
4391;SDS011;2210;51.938;8.488;2024-03-08T01:23:53;11.60;;;8.87;;
4391;SDS011;2210;51.938;8.488;2024-03-08T01:27:53;16.60;;;9.60;;
4391;SDS011;2210;51.938;8.488;2024-03-08T01:32:00;15.10;;;10.20;;
4391;SDS011;2210;51.938;8.488;2024-03-08T01:36:01;16.40;;;10.20;;
4391;SDS011;2210;51.938;8.488;2024-03-08T01:40:02;12.10;;;9.70;;
4391;SDS011;2210;51.938;8.488;2024-03-08T01:44:03;12.70;;;10.10;;
4391;SDS011;2210;51.938;8.488;2024-03-08T01:48:06;13.70;;;10.90;;
4391;SDS011;2210;51.938;8.488;2024-03-08T01:52:06;16.47;;;11.13;;
4391;SDS011;2210;51.938;8.488;2024-03-08T01:56:13;15.63;;;10.23;;
4391;SDS011;2210;51.938;8.488;2024-03-08T02:00:17;15.57;;;10.90;;
4391;SDS011;2210;51.938;8.488;2024-03-08T02:04:19;15.27;;;10.63;;
4391;SDS011;2210;51.938;8.488;2024-03-08T02:08:24;15.77;;;10.77;;
4391;SDS011;2210;51.938;8.488;2024-03-08T02:12:27;13.93;;;9.70;;
4391;SDS011;2210;51.938;8.488;2024-03-08T02:16:28;13.30;;;11.30;;
4391;SDS011;2210;51.938;8.488;2024-03-08T02:20:31;12.65;;;10.95;;
4391;SDS011;2210;51.938;8.488;2024-03-08T02:24:32;16.07;;;10.63;;
4391;SDS011;2210;51.938;8.488;2024-03-08T02:28:32;13.23;;;10.47;;
4391;SDS011;2210;51.938;8.488;2024-03-08T02:32:40;14.57;;;10.70;;
4391;SDS011;2210;51.938;8.488;2024-03-08T02:36:43;17.17;;;10.33;;
4391;SDS011;2210;51.938;8.488;2024-03-08T02:40:58;17.93;;;11.60;;
4391;SDS011;2210;51.938;8.488;2024-03-08T02:44:59;14.17;;;9.70;;
4391;SDS011;2210;51.938;8.488;2024-03-08T02:48:59;16.50;;;10.98;;
4391;SDS011;2210;51.938;8.488;2024-03-08T02:52:59;17.05;;;10.88;;
4391;SDS011;2210;51.938;8.488;2024-03-08T02:56:59;14.35;;;10.07;;
4391;SDS011;2210;51.938;8.488;2024-03-08T03:01:03;13.70;;;10.20;;
4391;SDS011;2210;51.938;8.488;2024-03-08T03:05:03;16.63;;;11.33;;
4391;SDS011;2210;51.938;8.488;2024-03-08T03:09:05;17.43;;;11.47;;
4391;SDS011;2210;51.938;8.488;2024-03-08T03:13:09;15.77;;;10.27;;
4391;SDS011;2210;51.938;8.488;2024-03-08T03:17:15;14.10;;;10.00;;
4391;SDS011;2210;51.938;8.488;2024-03-08T03:21:16;14.80;;;9.80;;
4391;SDS011;2210;51.938;8.488;2024-03-08T03:25:23;13.83;;;10.33;;
4391;SDS011;2210;51.938;8.488;2024-03-08T03:29:25;15.37;;;10.30;;
4391;SDS011;2210;51.938;8.488;2024-03-08T03:33:25;15.88;;;11.85;;
4391;SDS011;2210;51.938;8.488;2024-03-08T03:37:26;14.03;;;10.43;;
4391;SDS011;2210;51.938;8.488;2024-03-08T03:41:32;12.57;;;9.47;;
4391;SDS011;2210;51.938;8.488;2024-03-08T03:45:39;14.40;;;10.67;;
4391;SDS011;2210;51.938;8.488;2024-03-08T03:49:44;17.03;;;10.90;;
4391;SDS011;2210;51.938;8.488;2024-03-08T03:53:54;16.97;;;10.63;;
4391;SDS011;2210;51.938;8.488;2024-03-08T03:57:56;16.30;;;12.00;;
4391;SDS011;2210;51.938;8.488;2024-03-08T04:02:01;16.30;;;10.60;;
4391;SDS011;2210;51.938;8.488;2024-03-08T04:06:06;14.77;;;10.97;;
4391;SDS011;2210;51.938;8.488;2024-03-08T04:10:07;15.53;;;10.40;;
4391;SDS011;2210;51.938;8.488;2024-03-08T04:14:24;16.83;;;11.03;;
4391;SDS011;2210;51.938;8.488;2024-03-08T04:18:36;14.23;;;10.50;;
4391;SDS011;2210;51.938;8.488;2024-03-08T04:22:38;16.50;;;11.00;;
4391;SDS011;2210;51.938;8.488;2024-03-08T04:26:39;15.53;;;11.40;;
4391;SDS011;2210;51.938;8.488;2024-03-08T04:30:39;17.90;;;11.77;;
4391;SDS011;2210;51.938;8.488;2024-03-08T04:34:39;16.65;;;11.98;;
4391;SDS011;2210;51.938;8.488;2024-03-08T04:38:46;15.20;;;11.07;;
4391;SDS011;2210;51.938;8.488;2024-03-08T04:42:52;16.13;;;11.53;;
4391;SDS011;2210;51.938;8.488;2024-03-08T04:46:56;13.63;;;10.33;;
4391;SDS011;2210;51.938;8.488;2024-03-08T04:50:56;15.30;;;10.70;;
4391;SDS011;2210;51.938;8.488;2024-03-08T04:55:00;14.70;;;10.47;;
4391;SDS011;2210;51.938;8.488;2024-03-08T04:59:01;17.83;;;11.40;;
4391;SDS011;2210;51.938;8.488;2024-03-08T05:03:02;14.47;;;10.57;;
4391;SDS011;2210;51.938;8.488;2024-03-08T05:07:11;18.30;;;11.07;;
4391;SDS011;2210;51.938;8.488;2024-03-08T05:11:14;15.33;;;10.60;;
4391;SDS011;2210;51.938;8.488;2024-03-08T05:15:15;14.10;;;11.50;;
4391;SDS011;2210;51.938;8.488;2024-03-08T05:19:24;17.23;;;10.67;;
4391;SDS011;2210;51.938;8.488;2024-03-08T05:23:27;17.33;;;12.03;;
4391;SDS011;2210;51.938;8.488;2024-03-08T05:27:27;16.77;;;10.50;;
4391;SDS011;2210;51.938;8.488;2024-03-08T05:31:28;15.83;;;10.33;;
4391;SDS011;2210;51.938;8.488;2024-03-08T05:35:28;16.03;;;11.67;;
4391;SDS011;2210;51.938;8.488;2024-03-08T05:39:29;13.40;;;9.75;;
4391;SDS011;2210;51.938;8.488;2024-03-08T05:43:29;15.97;;;11.20;;
4391;SDS011;2210;51.938;8.488;2024-03-08T05:47:29;13.67;;;10.60;;
4391;SDS011;2210;51.938;8.488;2024-03-08T05:51:33;18.92;;;11.95;;
4391;SDS011;2210;51.938;8.488;2024-03-08T05:55:39;17.70;;;11.53;;
4391;SDS011;2210;51.938;8.488;2024-03-08T05:59:49;17.90;;;11.40;;
4391;SDS011;2210;51.938;8.488;2024-03-08T06:03:49;17.33;;;10.53;;
4391;SDS011;2210;51.938;8.488;2024-03-08T06:07:50;17.15;;;12.15;;
4391;SDS011;2210;51.938;8.488;2024-03-08T06:11:53;16.00;;;11.53;;
4391;SDS011;2210;51.938;8.488;2024-03-08T06:15:54;16.47;;;11.70;;
4391;SDS011;2210;51.938;8.488;2024-03-08T06:19:54;16.93;;;11.83;;
4391;SDS011;2210;51.938;8.488;2024-03-08T06:23:54;19.08;;;11.85;;
4391;SDS011;2210;51.938;8.488;2024-03-08T06:27:54;18.47;;;12.23;;
4391;SDS011;2210;51.938;8.488;2024-03-08T06:31:57;21.87;;;11.93;;
4391;SDS011;2210;51.938;8.488;2024-03-08T06:35:58;16.03;;;11.20;;
4391;SDS011;2210;51.938;8.488;2024-03-08T06:40:01;18.70;;;11.47;;
4391;SDS011;2210;51.938;8.488;2024-03-08T06:44:03;16.53;;;11.37;;
4391;SDS011;2210;51.938;8.488;2024-03-08T06:48:03;17.63;;;11.70;;
4391;SDS011;2210;51.938;8.488;2024-03-08T06:52:12;18.37;;;12.03;;
4391;SDS011;2210;51.938;8.488;2024-03-08T06:56:15;18.83;;;11.87;;
4391;SDS011;2210;51.938;8.488;2024-03-08T07:00:28;16.87;;;12.20;;
4391;SDS011;2210;51.938;8.488;2024-03-08T07:04:30;18.73;;;11.57;;
4391;SDS011;2210;51.938;8.488;2024-03-08T07:08:34;16.47;;;12.47;;
4391;SDS011;2210;51.938;8.488;2024-03-08T07:12:34;18.50;;;12.30;;
4391;SDS011;2210;51.938;8.488;2024-03-08T07:16:35;17.60;;;12.47;;
4391;SDS011;2210;51.938;8.488;2024-03-08T07:20:41;16.83;;;12.03;;
4391;SDS011;2210;51.938;8.488;2024-03-08T07:24:43;16.70;;;11.33;;
4391;SDS011;2210;51.938;8.488;2024-03-08T07:29:02;17.97;;;12.10;;
4391;SDS011;2210;51.938;8.488;2024-03-08T07:33:05;18.27;;;11.97;;
4391;SDS011;2210;51.938;8.488;2024-03-08T07:37:10;19.57;;;11.60;;
4391;SDS011;2210;51.938;8.488;2024-03-08T07:41:14;17.70;;;12.87;;
4391;SDS011;2210;51.938;8.488;2024-03-08T07:45:15;22.63;;;12.10;;
4391;SDS011;2210;51.938;8.488;2024-03-08T07:49:19;17.80;;;11.97;;
4391;SDS011;2210;51.938;8.488;2024-03-08T07:53:19;16.47;;;10.13;;
4391;SDS011;2210;51.938;8.488;2024-03-08T07:57:22;19.73;;;12.38;;
4391;SDS011;2210;51.938;8.488;2024-03-08T08:01:32;21.37;;;12.60;;
4391;SDS011;2210;51.938;8.488;2024-03-08T08:05:49;16.63;;;12.53;;
4391;SDS011;2210;51.938;8.488;2024-03-08T08:09:52;16.47;;;12.17;;
4391;SDS011;2210;51.938;8.488;2024-03-08T08:14:11;19.20;;;12.47;;
4391;SDS011;2210;51.938;8.488;2024-03-08T08:18:20;19.00;;;11.70;;
4391;SDS011;2210;51.938;8.488;2024-03-08T08:26:48;15.83;;;12.00;;
4391;SDS011;2210;51.938;8.488;2024-03-08T08:30:54;20.30;;;12.52;;
4391;SDS011;2210;51.938;8.488;2024-03-08T08:34:54;17.77;;;12.33;;
4391;SDS011;2210;51.938;8.488;2024-03-08T08:38:55;17.00;;;12.10;;
4391;SDS011;2210;51.938;8.488;2024-03-08T08:43:06;16.10;;;11.73;;
4391;SDS011;2210;51.938;8.488;2024-03-08T08:47:10;14.17;;;10.70;;
4391;SDS011;2210;51.938;8.488;2024-03-08T08:51:11;18.37;;;11.10;;
4391;SDS011;2210;51.938;8.488;2024-03-08T08:55:18;14.63;;;11.30;;
4391;SDS011;2210;51.938;8.488;2024-03-08T08:59:21;18.67;;;11.87;;
4391;SDS011;2210;51.938;8.488;2024-03-08T09:03:26;16.00;;;11.83;;
4391;SDS011;2210;51.938;8.488;2024-03-08T09:07:31;21.13;;;13.40;;
4391;SDS011;2210;51.938;8.488;2024-03-08T09:11:35;17.40;;;10.77;;
4391;SDS011;2210;51.938;8.488;2024-03-08T09:15:41;16.83;;;11.00;;
4391;SDS011;2210;51.938;8.488;2024-03-08T09:19:41;17.27;;;11.00;;
4391;SDS011;2210;51.938;8.488;2024-03-08T09:23:44;17.83;;;11.52;;
4391;SDS011;2210;51.938;8.488;2024-03-08T09:27:45;15.80;;;10.67;;
4391;SDS011;2210;51.938;8.488;2024-03-08T09:31:49;16.37;;;10.70;;
4391;SDS011;2210;51.938;8.488;2024-03-08T09:35:52;16.97;;;11.23;;
4391;SDS011;2210;51.938;8.488;2024-03-08T09:39:53;16.90;;;11.60;;
4391;SDS011;2210;51.938;8.488;2024-03-08T09:43:53;15.90;;;11.02;;
4391;SDS011;2210;51.938;8.488;2024-03-08T09:48:01;17.70;;;11.70;;
4391;SDS011;2210;51.938;8.488;2024-03-08T09:52:02;21.23;;;10.93;;
4391;SDS011;2210;51.938;8.488;2024-03-08T09:56:04;13.50;;;10.90;;
4391;SDS011;2210;51.938;8.488;2024-03-08T10:00:09;13.63;;;11.13;;
4391;SDS011;2210;51.938;8.488;2024-03-08T10:04:24;16.07;;;11.23;;
4391;SDS011;2210;51.938;8.488;2024-03-08T10:08:35;13.27;;;10.10;;
4391;SDS011;2210;51.938;8.488;2024-03-08T10:12:36;14.67;;;10.73;;
4391;SDS011;2210;51.938;8.488;2024-03-08T10:16:37;15.87;;;10.37;;
4391;SDS011;2210;51.938;8.488;2024-03-08T10:20:42;14.17;;;9.70;;
4391;SDS011;2210;51.938;8.488;2024-03-08T10:24:44;11.70;;;8.93;;
4391;SDS011;2210;51.938;8.488;2024-03-08T10:28:46;11.63;;;8.60;;
4391;SDS011;2210;51.938;8.488;2024-03-08T10:32:51;6.40;;;4.90;;
4391;SDS011;2210;51.938;8.488;2024-03-08T10:37:04;10.87;;;8.93;;
4391;SDS011;2210;51.938;8.488;2024-03-08T10:41:09;12.37;;;9.03;;
4391;SDS011;2210;51.938;8.488;2024-03-08T10:45:15;10.13;;;7.87;;
4391;SDS011;2210;51.938;8.488;2024-03-08T10:49:28;9.80;;;8.57;;
4391;SDS011;2210;51.938;8.488;2024-03-08T10:53:31;11.60;;;8.50;;
4391;SDS011;2210;51.938;8.488;2024-03-08T10:57:46;11.03;;;8.20;;
4391;SDS011;2210;51.938;8.488;2024-03-08T11:01:51;12.63;;;8.90;;
4391;SDS011;2210;51.938;8.488;2024-03-08T11:05:54;10.37;;;7.53;;
4391;SDS011;2210;51.938;8.488;2024-03-08T11:09:54;12.67;;;7.80;;
4391;SDS011;2210;51.938;8.488;2024-03-08T11:13:56;10.53;;;7.20;;
4391;SDS011;2210;51.938;8.488;2024-03-08T11:18:02;10.40;;;7.93;;
4391;SDS011;2210;51.938;8.488;2024-03-08T11:22:13;12.17;;;8.00;;
4391;SDS011;2210;51.938;8.488;2024-03-08T11:26:23;10.63;;;8.03;;
4391;SDS011;2210;51.938;8.488;2024-03-08T11:30:24;7.97;;;6.87;;
4391;SDS011;2210;51.938;8.488;2024-03-08T11:34:32;10.77;;;8.87;;
4391;SDS011;2210;51.938;8.488;2024-03-08T11:38:44;8.90;;;7.73;;
4391;SDS011;2210;51.938;8.488;2024-03-08T11:42:48;9.97;;;7.60;;
4391;SDS011;2210;51.938;8.488;2024-03-08T11:46:49;9.93;;;7.90;;
4391;SDS011;2210;51.938;8.488;2024-03-08T11:50:59;10.07;;;7.83;;
4391;SDS011;2210;51.938;8.488;2024-03-08T11:55:07;8.07;;;7.23;;
4391;SDS011;2210;51.938;8.488;2024-03-08T11:59:11;11.63;;;8.97;;
4391;SDS011;2210;51.938;8.488;2024-03-08T12:03:18;10.60;;;8.17;;
4391;SDS011;2210;51.938;8.488;2024-03-08T12:07:18;9.37;;;7.37;;
4391;SDS011;2210;51.938;8.488;2024-03-08T12:11:19;13.30;;;9.10;;
4391;SDS011;2210;51.938;8.488;2024-03-08T12:15:23;12.80;;;9.40;;
4391;SDS011;2210;51.938;8.488;2024-03-08T12:19:24;10.87;;;8.63;;
4391;SDS011;2210;51.938;8.488;2024-03-08T12:23:25;11.83;;;8.77;;
4391;SDS011;2210;51.938;8.488;2024-03-08T12:27:26;10.83;;;7.37;;
4391;SDS011;2210;51.938;8.488;2024-03-08T12:31:34;11.30;;;8.80;;
4391;SDS011;2210;51.938;8.488;2024-03-08T12:35:36;12.17;;;8.70;;
4391;SDS011;2210;51.938;8.488;2024-03-08T12:39:40;10.47;;;7.90;;
4391;SDS011;2210;51.938;8.488;2024-03-08T12:43:43;9.07;;;7.73;;
4391;SDS011;2210;51.938;8.488;2024-03-08T12:47:51;10.03;;;8.50;;
4391;SDS011;2210;51.938;8.488;2024-03-08T12:51:53;10.47;;;8.10;;
4391;SDS011;2210;51.938;8.488;2024-03-08T12:55:53;9.50;;;7.63;;
4391;SDS011;2210;51.938;8.488;2024-03-08T12:59:59;10.40;;;7.67;;
4391;SDS011;2210;51.938;8.488;2024-03-08T13:04:05;9.50;;;7.70;;
4391;SDS011;2210;51.938;8.488;2024-03-08T13:08:15;9.57;;;7.60;;
4391;SDS011;2210;51.938;8.488;2024-03-08T13:12:22;7.80;;;6.70;;
4391;SDS011;2210;51.938;8.488;2024-03-08T13:16:23;7.97;;;6.70;;
4391;SDS011;2210;51.938;8.488;2024-03-08T13:20:24;11.73;;;6.87;;
4391;SDS011;2210;51.938;8.488;2024-03-08T13:24:24;7.05;;;5.60;;
4391;SDS011;2210;51.938;8.488;2024-03-08T13:28:24;9.20;;;6.50;;
4391;SDS011;2210;51.938;8.488;2024-03-08T13:32:32;11.70;;;7.00;;
4391;SDS011;2210;51.938;8.488;2024-03-08T13:36:33;11.33;;;8.87;;
4391;SDS011;2210;51.938;8.488;2024-03-08T13:40:39;9.30;;;7.27;;
4391;SDS011;2210;51.938;8.488;2024-03-08T13:44:43;10.03;;;8.27;;
4391;SDS011;2210;51.938;8.488;2024-03-08T13:48:44;9.97;;;7.80;;
4391;SDS011;2210;51.938;8.488;2024-03-08T13:52:44;9.50;;;7.50;;
4391;SDS011;2210;51.938;8.488;2024-03-08T13:56:44;12.75;;;9.48;;
4391;SDS011;2210;51.938;8.488;2024-03-08T14:00:44;12.83;;;8.93;;
4391;SDS011;2210;51.938;8.488;2024-03-08T14:04:47;11.63;;;7.83;;
4391;SDS011;2210;51.938;8.488;2024-03-08T14:08:49;12.77;;;9.30;;
4391;SDS011;2210;51.938;8.488;2024-03-08T14:12:50;9.50;;;7.97;;
4391;SDS011;2210;51.938;8.488;2024-03-08T14:16:50;14.10;;;7.60;;
4391;SDS011;2210;51.938;8.488;2024-03-08T14:20:57;8.70;;;6.97;;
4391;SDS011;2210;51.938;8.488;2024-03-08T14:25:04;7.87;;;7.03;;
4391;SDS011;2210;51.938;8.488;2024-03-08T14:29:08;14.70;;;8.33;;
4391;SDS011;2210;51.938;8.488;2024-03-08T14:33:15;9.30;;;6.77;;
4391;SDS011;2210;51.938;8.488;2024-03-08T14:37:16;10.60;;;8.50;;
4391;SDS011;2210;51.938;8.488;2024-03-08T14:41:20;13.17;;;7.57;;
4391;SDS011;2210;51.938;8.488;2024-03-08T14:45:22;12.50;;;8.70;;
4391;SDS011;2210;51.938;8.488;2024-03-08T14:49:24;10.90;;;8.80;;
4391;SDS011;2210;51.938;8.488;2024-03-08T14:53:34;10.63;;;8.20;;
4391;SDS011;2210;51.938;8.488;2024-03-08T14:57:34;11.57;;;9.27;;
4391;SDS011;2210;51.938;8.488;2024-03-08T15:01:38;12.83;;;9.40;;
4391;SDS011;2210;51.938;8.488;2024-03-08T15:05:38;10.70;;;8.93;;
4391;SDS011;2210;51.938;8.488;2024-03-08T15:09:42;13.70;;;9.30;;
4391;SDS011;2210;51.938;8.488;2024-03-08T15:13:43;11.13;;;8.97;;
4391;SDS011;2210;51.938;8.488;2024-03-08T15:17:44;16.13;;;8.87;;
4391;SDS011;2210;51.938;8.488;2024-03-08T15:21:59;14.03;;;9.20;;
4391;SDS011;2210;51.938;8.488;2024-03-08T15:26:11;14.53;;;8.63;;
4391;SDS011;2210;51.938;8.488;2024-03-08T15:30:11;12.03;;;8.37;;
4391;SDS011;2210;51.938;8.488;2024-03-08T15:34:13;14.07;;;9.60;;
4391;SDS011;2210;51.938;8.488;2024-03-08T15:38:13;11.00;;;8.68;;
4391;SDS011;2210;51.938;8.488;2024-03-08T15:42:13;10.20;;;7.10;;
4391;SDS011;2210;51.938;8.488;2024-03-08T15:46:13;14.35;;;9.57;;
4391;SDS011;2210;51.938;8.488;2024-03-08T15:50:21;12.97;;;8.77;;
4391;SDS011;2210;51.938;8.488;2024-03-08T15:54:34;12.67;;;9.50;;
4391;SDS011;2210;51.938;8.488;2024-03-08T15:58:52;12.00;;;9.00;;
4391;SDS011;2210;51.938;8.488;2024-03-08T16:02:53;13.10;;;8.83;;
4391;SDS011;2210;51.938;8.488;2024-03-08T16:06:53;16.05;;;9.38;;
4391;SDS011;2210;51.938;8.488;2024-03-08T16:10:54;12.40;;;9.00;;
4391;SDS011;2210;51.938;8.488;2024-03-08T16:15:04;12.37;;;9.27;;
4391;SDS011;2210;51.938;8.488;2024-03-08T16:19:07;13.80;;;9.30;;
4391;SDS011;2210;51.938;8.488;2024-03-08T16:23:08;14.70;;;10.20;;
4391;SDS011;2210;51.938;8.488;2024-03-08T16:27:10;14.77;;;10.27;;
4391;SDS011;2210;51.938;8.488;2024-03-08T16:31:10;12.57;;;9.93;;
4391;SDS011;2210;51.938;8.488;2024-03-08T16:35:14;12.93;;;10.13;;
4391;SDS011;2210;51.938;8.488;2024-03-08T16:39:18;15.77;;;11.40;;
4391;SDS011;2210;51.938;8.488;2024-03-08T16:43:18;14.73;;;11.73;;
4391;SDS011;2210;51.938;8.488;2024-03-08T16:47:21;14.90;;;10.63;;
4391;SDS011;2210;51.938;8.488;2024-03-08T16:51:22;14.80;;;10.10;;
4391;SDS011;2210;51.938;8.488;2024-03-08T16:55:23;14.52;;;10.65;;
4391;SDS011;2210;51.938;8.488;2024-03-08T16:59:23;15.63;;;11.33;;
4391;SDS011;2210;51.938;8.488;2024-03-08T17:03:26;15.25;;;11.77;;
4391;SDS011;2210;51.938;8.488;2024-03-08T17:07:27;15.80;;;11.00;;
4391;SDS011;2210;51.938;8.488;2024-03-08T17:11:29;15.00;;;10.97;;
4391;SDS011;2210;51.938;8.488;2024-03-08T17:15:39;16.80;;;11.90;;
4391;SDS011;2210;51.938;8.488;2024-03-08T17:19:41;14.90;;;11.30;;
4391;SDS011;2210;51.938;8.488;2024-03-08T17:23:51;18.90;;;10.93;;
4391;SDS011;2210;51.938;8.488;2024-03-08T17:27:58;14.80;;;11.03;;
4391;SDS011;2210;51.938;8.488;2024-03-08T17:32:02;15.07;;;11.00;;
4391;SDS011;2210;51.938;8.488;2024-03-08T17:36:10;17.70;;;11.57;;
4391;SDS011;2210;51.938;8.488;2024-03-08T17:40:11;17.43;;;11.73;;
4391;SDS011;2210;51.938;8.488;2024-03-08T17:44:27;16.97;;;12.00;;
4391;SDS011;2210;51.938;8.488;2024-03-08T17:48:36;15.90;;;11.70;;
4391;SDS011;2210;51.938;8.488;2024-03-08T17:52:36;18.53;;;12.57;;
4391;SDS011;2210;51.938;8.488;2024-03-08T17:56:38;17.40;;;11.80;;
4391;SDS011;2210;51.938;8.488;2024-03-08T18:00:51;19.30;;;12.10;;
4391;SDS011;2210;51.938;8.488;2024-03-08T18:04:53;13.07;;;9.87;;
4391;SDS011;2210;51.938;8.488;2024-03-08T18:08:53;15.25;;;11.02;;
4391;SDS011;2210;51.938;8.488;2024-03-08T18:12:54;16.47;;;10.30;;
4391;SDS011;2210;51.938;8.488;2024-03-08T18:16:59;17.13;;;12.40;;
4391;SDS011;2210;51.938;8.488;2024-03-08T18:21:15;15.70;;;11.07;;
4391;SDS011;2210;51.938;8.488;2024-03-08T18:25:25;17.77;;;12.93;;
4391;SDS011;2210;51.938;8.488;2024-03-08T18:29:27;18.30;;;12.07;;
4391;SDS011;2210;51.938;8.488;2024-03-08T18:33:36;13.55;;;10.98;;
4391;SDS011;2210;51.938;8.488;2024-03-08T18:37:45;18.63;;;11.97;;
4391;SDS011;2210;51.938;8.488;2024-03-08T18:41:53;16.40;;;10.63;;
4391;SDS011;2210;51.938;8.488;2024-03-08T18:45:56;15.07;;;10.70;;
4391;SDS011;2210;51.938;8.488;2024-03-08T18:49:57;15.67;;;11.43;;
4391;SDS011;2210;51.938;8.488;2024-03-08T18:54:05;16.77;;;10.90;;
4391;SDS011;2210;51.938;8.488;2024-03-08T18:58:11;16.67;;;11.43;;
4391;SDS011;2210;51.938;8.488;2024-03-08T19:02:24;12.80;;;10.00;;
4391;SDS011;2210;51.938;8.488;2024-03-08T19:06:27;13.57;;;10.30;;
4391;SDS011;2210;51.938;8.488;2024-03-08T19:10:34;13.57;;;11.17;;
4391;SDS011;2210;51.938;8.488;2024-03-08T19:14:35;16.30;;;11.43;;
4391;SDS011;2210;51.938;8.488;2024-03-08T19:18:38;14.13;;;11.20;;
4391;SDS011;2210;51.938;8.488;2024-03-08T19:22:39;15.88;;;11.80;;
4391;SDS011;2210;51.938;8.488;2024-03-08T19:26:43;15.33;;;10.20;;
4391;SDS011;2210;51.938;8.488;2024-03-08T19:30:46;18.27;;;11.90;;
4391;SDS011;2210;51.938;8.488;2024-03-08T19:34:48;15.23;;;10.50;;
4391;SDS011;2210;51.938;8.488;2024-03-08T19:38:49;16.30;;;11.47;;
4391;SDS011;2210;51.938;8.488;2024-03-08T19:42:59;15.13;;;11.00;;
4391;SDS011;2210;51.938;8.488;2024-03-08T19:47:10;16.30;;;11.33;;
4391;SDS011;2210;51.938;8.488;2024-03-08T19:51:13;16.57;;;10.67;;
4391;SDS011;2210;51.938;8.488;2024-03-08T19:55:17;18.60;;;12.40;;
4391;SDS011;2210;51.938;8.488;2024-03-08T19:59:22;14.43;;;10.53;;
4391;SDS011;2210;51.938;8.488;2024-03-08T20:03:27;16.53;;;11.53;;
4391;SDS011;2210;51.938;8.488;2024-03-08T20:07:31;18.00;;;11.80;;
4391;SDS011;2210;51.938;8.488;2024-03-08T20:11:38;18.37;;;12.30;;
4391;SDS011;2210;51.938;8.488;2024-03-08T20:15:41;16.70;;;11.63;;
4391;SDS011;2210;51.938;8.488;2024-03-08T20:20:06;20.17;;;11.97;;
4391;SDS011;2210;51.938;8.488;2024-03-08T20:24:14;18.47;;;11.57;;
4391;SDS011;2210;51.938;8.488;2024-03-08T20:28:17;17.90;;;10.80;;
4391;SDS011;2210;51.938;8.488;2024-03-08T20:32:20;16.50;;;11.23;;
4391;SDS011;2210;51.938;8.488;2024-03-08T20:36:21;14.93;;;11.30;;
4391;SDS011;2210;51.938;8.488;2024-03-08T20:40:24;14.07;;;10.68;;
4391;SDS011;2210;51.938;8.488;2024-03-08T20:44:38;14.40;;;10.20;;
4391;SDS011;2210;51.938;8.488;2024-03-08T20:48:38;17.10;;;10.97;;
4391;SDS011;2210;51.938;8.488;2024-03-08T20:52:46;15.53;;;10.80;;
4391;SDS011;2210;51.938;8.488;2024-03-08T20:56:47;16.50;;;10.90;;
4391;SDS011;2210;51.938;8.488;2024-03-08T21:00:50;15.90;;;11.38;;
4391;SDS011;2210;51.938;8.488;2024-03-08T21:05:04;16.60;;;11.40;;
4391;SDS011;2210;51.938;8.488;2024-03-08T21:09:06;17.20;;;12.00;;
4391;SDS011;2210;51.938;8.488;2024-03-08T21:13:17;16.07;;;11.40;;
4391;SDS011;2210;51.938;8.488;2024-03-08T21:17:33;15.40;;;11.87;;
4391;SDS011;2210;51.938;8.488;2024-03-08T21:21:34;17.90;;;11.40;;
4391;SDS011;2210;51.938;8.488;2024-03-08T21:25:34;17.30;;;11.80;;
4391;SDS011;2210;51.938;8.488;2024-03-08T21:29:40;14.60;;;11.03;;
4391;SDS011;2210;51.938;8.488;2024-03-08T21:33:46;15.43;;;11.67;;
4391;SDS011;2210;51.938;8.488;2024-03-08T21:37:48;16.47;;;12.17;;
4391;SDS011;2210;51.938;8.488;2024-03-08T21:41:49;16.30;;;11.70;;
4391;SDS011;2210;51.938;8.488;2024-03-08T21:45:49;18.45;;;11.77;;
4391;SDS011;2210;51.938;8.488;2024-03-08T21:49:49;16.33;;;11.30;;
4391;SDS011;2210;51.938;8.488;2024-03-08T21:53:50;15.60;;;11.27;;
4391;SDS011;2210;51.938;8.488;2024-03-08T21:58:01;16.90;;;12.03;;
4391;SDS011;2210;51.938;8.488;2024-03-08T22:02:07;17.20;;;12.00;;
4391;SDS011;2210;51.938;8.488;2024-03-08T22:06:07;16.73;;;11.80;;
4391;SDS011;2210;51.938;8.488;2024-03-08T22:10:19;16.93;;;11.17;;
4391;SDS011;2210;51.938;8.488;2024-03-08T22:14:21;14.77;;;11.47;;
4391;SDS011;2210;51.938;8.488;2024-03-08T22:18:23;14.77;;;10.50;;
4391;SDS011;2210;51.938;8.488;2024-03-08T22:22:24;17.73;;;12.43;;
4391;SDS011;2210;51.938;8.488;2024-03-08T22:26:34;17.00;;;11.57;;
4391;SDS011;2210;51.938;8.488;2024-03-08T22:30:40;17.60;;;11.90;;
4391;SDS011;2210;51.938;8.488;2024-03-08T22:34:41;16.73;;;11.30;;
4391;SDS011;2210;51.938;8.488;2024-03-08T22:38:47;17.08;;;12.07;;
4391;SDS011;2210;51.938;8.488;2024-03-08T22:42:48;16.10;;;11.67;;
4391;SDS011;2210;51.938;8.488;2024-03-08T22:46:48;14.27;;;10.83;;
4391;SDS011;2210;51.938;8.488;2024-03-08T22:50:49;15.65;;;12.27;;
4391;SDS011;2210;51.938;8.488;2024-03-08T22:54:49;15.27;;;11.00;;
4391;SDS011;2210;51.938;8.488;2024-03-08T22:58:50;15.97;;;12.23;;
4391;SDS011;2210;51.938;8.488;2024-03-08T23:02:51;15.30;;;11.17;;
4391;SDS011;2210;51.938;8.488;2024-03-08T23:06:58;17.60;;;12.10;;
4391;SDS011;2210;51.938;8.488;2024-03-08T23:11:01;15.70;;;11.43;;
4391;SDS011;2210;51.938;8.488;2024-03-08T23:15:07;16.33;;;11.43;;
4391;SDS011;2210;51.938;8.488;2024-03-08T23:19:13;17.17;;;12.80;;
4391;SDS011;2210;51.938;8.488;2024-03-08T23:23:16;17.03;;;11.93;;
4391;SDS011;2210;51.938;8.488;2024-03-08T23:27:19;18.13;;;12.13;;
4391;SDS011;2210;51.938;8.488;2024-03-08T23:31:19;16.80;;;11.20;;
4391;SDS011;2210;51.938;8.488;2024-03-08T23:35:21;15.97;;;11.00;;
4391;SDS011;2210;51.938;8.488;2024-03-08T23:39:27;16.37;;;11.70;;
4391;SDS011;2210;51.938;8.488;2024-03-08T23:43:31;16.87;;;10.70;;
4391;SDS011;2210;51.938;8.488;2024-03-08T23:47:34;18.10;;;11.30;;
4391;SDS011;2210;51.938;8.488;2024-03-08T23:51:34;14.73;;;10.88;;
4391;SDS011;2210;51.938;8.488;2024-03-08T23:55:43;14.43;;;10.90;;
4391;SDS011;2210;51.938;8.488;2024-03-08T23:59:48;14.27;;;11.13;;
